首页
METAR-TAF:

METAR-TAF

机场 :

杰克逊维尔, 佛罗里达州, 美国

纬度: 30-14-03N, 经度: 081-40-29W, 海拔: 6米

当前天气观测

该预报发布于42分钟前的02:53 UTC
风速16节,风向
温度 11°C
湿度 76%
气压 1016 hPa
能見度: 16.1公里
阴天层高于1500英尺

METAR: KNIP 170253Z 35016KT 10SM OVC015 11/07 A2999 RMK AO2 SLP149 60000 T01060067 53006 $

时间: 22:35 (03:35 UTC)

预报

预报有效从16日的 23点(UTC)到 17日的 23点(UTC)
风速15节,风向北转西北,有时为23节阵风
能见度10公里或以上
阴天层高于2000英尺
附近有阵雨
从 17日的 0000点(UTC)
风速15节,风向,有时为23节阵风
能见度10公里或以上
阴天层高于1500英尺
成为
从 17日的 13点(UTC)到 17日的 15点(UTC)
风速10节,风向
能见度10公里或以上
少量云层高于3000英尺
散云层高于10000英尺

TAF: KNIP 1623/1723 34015G23KT 9999 VCSH OVC020 QNH2990INS FM170000 35015G23KT 9999 OVC015 QNH2993INS BECMG 1713/1715 35010KT 9999 FEW030 SCT100 QNH2997INS T14/1623Z T09/1712Z FN00216

超过4000个机场的气象观测和天气预报(METAR&TAF报告)。

可查询的气象台以黄色和红色小点在地图上表示。

将鼠标移到小点上方,可查看气象台名称。

然后点击查看天气观测和预报。

如需切换地图:点击带黑十字的绿色按钮放大地图;点击带横线的绿色按钮缩小地图;或者点击绿色箭头查看邻近地区的地图。


METAR-TAF: